Umlma — A7MY — position and weather

sailwx.info

Track history (hours):
 
Tides and Currents Weather Stations Pressure Air Temp Water Temp Dewpoint Dewpoint Depression Visibility Wind Speed Wind Dir Waves Ship Positions

Umlma

Last reported at 2017-Dec-11 14:20 UTC. Time now 2017-Dec-11 15:16 UTC.
Position N 29°12' W 093°06'.

Length 243 m; draft 8.2 m.

Type: Tanker. MMSI: 466241000.

Date/timePositionNaut miles runAvg speedWind from/ knotsBaromVisibWave heightAir tempDewpointWater temp
2017-Dec-11 14:20N 29°12' W 093°06'0 0.0
2017-Dec-11 13:59N 29°12' W 093°06'0 0.0
2017-Dec-11 13:05N 29°12' W 093°06'0 0.0
2017-Dec-11 10:08N 29°12' W 093°06'0 0.0
2017-Dec-11 09:50N 29°12' W 093°06'0 0.0
2017-Dec-11 09:02N 29°12' W 093°06'0 0.1
2017-Dec-11 08:56N 29°12' W 093°06'0 0.0
2017-Dec-11 08:29N 29°12' W 093°06'38 2.8
2017-Dec-10 18:51N 29°47' W 093°21'3 9.3
2017-Dec-10 18:30N 29°51' W 093°21'4 8.3
2017-Dec-10 18:00N 29°55' W 093°20'4 8.4
2017-Dec-10 17:30N 29°59' W 093°20'3 6.8
2017-Dec-10 17:00N 30°02' W 093°20'4 8.1
2017-Dec-10 16:30N 30°06' W 093°20'2 4.7
2017-Dec-10 16:00N 30°09' W 093°20'1 1.3
2017-Dec-10 15:29N 30°09' W 093°20'0 0.0
2017-Dec-10 14:56N 30°09' W 093°20'0 0.0
2017-Dec-10 14:26N 30°09' W 093°20'0 0.0
2017-Dec-10 13:59N 30°09' W 093°20'0 0.0
2017-Dec-10 13:29N 30°09' W 093°20'0 0.0
2017-Dec-10 12:59N 30°09' W 093°20'0 0.0
2017-Dec-10 12:29N 30°09' W 093°20'0 0.0
2017-Dec-10 11:59N 30°09' W 093°20'0 0.0
2017-Dec-10 11:29N 30°09' W 093°20'0 0.0
2017-Dec-10 10:59N 30°09' W 093°20'0 0.0
2017-Dec-10 10:29N 30°09' W 093°20'0 0.0
2017-Dec-10 09:59N 30°09' W 093°20'0 0.0
2017-Dec-10 09:29N 30°09' W 093°20'0 0.0
2017-Dec-10 08:59N 30°09' W 093°20'0 0.0
2017-Dec-10 08:29N 30°09' W 093°20'0 0.0
2017-Dec-10 07:59N 30°09' W 093°20'0 0.0
2017-Dec-10 07:29N 30°09' W 093°20'0 0.0
2017-Dec-10 06:59N 30°09' W 093°20'0 0.0
2017-Dec-10 06:29N 30°09' W 093°20'0 0.0
2017-Dec-10 05:59N 30°09' W 093°20'0 0.0
2017-Dec-10 05:29N 30°09' W 093°20'0 0.0
2017-Dec-10 04:59N 30°09' W 093°20'0 0.0
2017-Dec-10 04:29N 30°09' W 093°20'0 0.0
2017-Dec-10 03:59N 30°09' W 093°20'0 0.0
2017-Dec-10 03:29N 30°09' W 093°20'0 0.0
2017-Dec-10 02:59N 30°09' W 093°20'0 0.0
2017-Dec-10 02:29N 30°09' W 093°20'0 0.0
2017-Dec-10 01:59N 30°09' W 093°20'0 0.0
2017-Dec-10 01:29N 30°09' W 093°20'0 0.0
2017-Dec-10 00:59N 30°09' W 093°20'0 0.0
2017-Dec-10 00:29N 30°09' W 093°20'0 0.0
2017-Dec-09 23:59N 30°09' W 093°20'0 0.0
2017-Dec-09 23:26N 30°09' W 093°20'0 0.0
2017-Dec-09 22:59N 30°09' W 093°20'0 0.0
2017-Dec-09 22:26N 30°09' W 093°20'0 0.0
2017-Dec-09 21:59N 30°09' W 093°20'0 0.0
2017-Dec-09 21:29N 30°09' W 093°20'0 0.0
2017-Dec-09 20:59N 30°09' W 093°20'0 0.0
2017-Dec-09 20:29N 30°09' W 093°20'0 0.0
2017-Dec-09 19:56N 30°09' W 093°20'0 0.0
2017-Dec-09 19:29N 30°09' W 093°20'0 0.0
2017-Dec-09 18:59N 30°09' W 093°20'0 0.0
2017-Dec-09 18:29N 30°09' W 093°20'0 0.0
2017-Dec-09 17:59N 30°09' W 093°20'0 0.0
2017-Dec-09 17:30N 30°09' W 093°20'1 1.3
2017-Dec-09 17:00N 30°09' W 093°20'3 6.0
2017-Dec-09 16:30N 30°06' W 093°20'3 6.2
2017-Dec-09 16:00N 30°03' W 093°20'3 5.8
2017-Dec-09 15:30N 29°60' W 093°20'3 6.8
2017-Dec-09 15:00N 29°56' W 093°20'3 7.0
2017-Dec-09 14:30N 29°53' W 093°21'4 7.5
2017-Dec-09 14:00N 29°49' W 093°21'4 7.4
2017-Dec-09 13:30N 29°46' W 093°21'510.0
2017-Dec-09 13:00N 29°41' W 093°20'510.9
2017-Dec-09 12:30N 29°36' W 093°17'  
Track history (hours):
 
Tides and Currents Weather Stations Pressure Air Temp Water Temp Dewpoint Dewpoint Depression Visibility Wind Speed Wind Dir Waves Ship Positions

Umlma

Last reported at 2017-Dec-11 14:20 UTC. Time now 2017-Dec-11 15:16 UTC.
Position N 29°12' W 093°06'.

Length 243 m; draft 8.2 m.

Type: Tanker. MMSI: 466241000.

Date/timePositionNaut miles runAvg speedWind from/ knotsBaromVisibWave heightAir tempDewpointWater temp
2017-Dec-11 14:20N 29°12' W 093°06'0 0.0
2017-Dec-11 13:59N 29°12' W 093°06'0 0.0
2017-Dec-11 13:05N 29°12' W 093°06'0 0.0
2017-Dec-11 10:08N 29°12' W 093°06'0 0.0
2017-Dec-11 09:50N 29°12' W 093°06'0 0.0
2017-Dec-11 09:02N 29°12' W 093°06'0 0.1
2017-Dec-11 08:56N 29°12' W 093°06'0 0.0
2017-Dec-11 08:29N 29°12' W 093°06'38 2.8
2017-Dec-10 18:51N 29°47' W 093°21'3 9.3
2017-Dec-10 18:30N 29°51' W 093°21'4 8.3
2017-Dec-10 18:00N 29°55' W 093°20'4 8.4
2017-Dec-10 17:30N 29°59' W 093°20'3 6.8
2017-Dec-10 17:00N 30°02' W 093°20'4 8.1
2017-Dec-10 16:30N 30°06' W 093°20'2 4.7
2017-Dec-10 16:00N 30°09' W 093°20'1 1.3
2017-Dec-10 15:29N 30°09' W 093°20'0 0.0
2017-Dec-10 14:56N 30°09' W 093°20'0 0.0
2017-Dec-10 14:26N 30°09' W 093°20'0 0.0
2017-Dec-10 13:59N 30°09' W 093°20'0 0.0
2017-Dec-10 13:29N 30°09' W 093°20'0 0.0
2017-Dec-10 12:59N 30°09' W 093°20'0 0.0
2017-Dec-10 12:29N 30°09' W 093°20'0 0.0
2017-Dec-10 11:59N 30°09' W 093°20'0 0.0
2017-Dec-10 11:29N 30°09' W 093°20'0 0.0
2017-Dec-10 10:59N 30°09' W 093°20'0 0.0
2017-Dec-10 10:29N 30°09' W 093°20'0 0.0
2017-Dec-10 09:59N 30°09' W 093°20'0 0.0
2017-Dec-10 09:29N 30°09' W 093°20'0 0.0
2017-Dec-10 08:59N 30°09' W 093°20'0 0.0
2017-Dec-10 08:29N 30°09' W 093°20'0 0.0
2017-Dec-10 07:59N 30°09' W 093°20'0 0.0
2017-Dec-10 07:29N 30°09' W 093°20'0 0.0
2017-Dec-10 06:59N 30°09' W 093°20'0 0.0
2017-Dec-10 06:29N 30°09' W 093°20'0 0.0
2017-Dec-10 05:59N 30°09' W 093°20'0 0.0
2017-Dec-10 05:29N 30°09' W 093°20'0 0.0
2017-Dec-10 04:59N 30°09' W 093°20'0 0.0
2017-Dec-10 04:29N 30°09' W 093°20'0 0.0
2017-Dec-10 03:59N 30°09' W 093°20'0 0.0
2017-Dec-10 03:29N 30°09' W 093°20'0 0.0
2017-Dec-10 02:59N 30°09' W 093°20'0 0.0
2017-Dec-10 02:29N 30°09' W 093°20'0 0.0
2017-Dec-10 01:59N 30°09' W 093°20'0 0.0
2017-Dec-10 01:29N 30°09' W 093°20'0 0.0
2017-Dec-10 00:59N 30°09' W 093°20'0 0.0
2017-Dec-10 00:29N 30°09' W 093°20'0 0.0
2017-Dec-09 23:59N 30°09' W 093°20'0 0.0
2017-Dec-09 23:26N 30°09' W 093°20'0 0.0
2017-Dec-09 22:59N 30°09' W 093°20'0 0.0
2017-Dec-09 22:26N 30°09' W 093°20'0 0.0
2017-Dec-09 21:59N 30°09' W 093°20'0 0.0
2017-Dec-09 21:29N 30°09' W 093°20'0 0.0
2017-Dec-09 20:59N 30°09' W 093°20'0 0.0
2017-Dec-09 20:29N 30°09' W 093°20'0 0.0
2017-Dec-09 19:56N 30°09' W 093°20'0 0.0
2017-Dec-09 19:29N 30°09' W 093°20'0 0.0
2017-Dec-09 18:59N 30°09' W 093°20'0 0.0
2017-Dec-09 18:29N 30°09' W 093°20'0 0.0
2017-Dec-09 17:59N 30°09' W 093°20'0 0.0
2017-Dec-09 17:30N 30°09' W 093°20'1 1.3
2017-Dec-09 17:00N 30°09' W 093°20'3 6.0
2017-Dec-09 16:30N 30°06' W 093°20'3 6.2
2017-Dec-09 16:00N 30°03' W 093°20'3 5.8
2017-Dec-09 15:30N 29°60' W 093°20'3 6.8
2017-Dec-09 15:00N 29°56' W 093°20'3 7.0
2017-Dec-09 14:30N 29°53' W 093°21'4 7.5
2017-Dec-09 14:00N 29°49' W 093°21'4 7.4
2017-Dec-09 13:30N 29°46' W 093°21'510.0
2017-Dec-09 13:00N 29°41' W 093°20'510.9
2017-Dec-09 12:30N 29°36' W 093°17'  

Dump ship's entire track history